• Join FlightAware (Why Join?)
  • Login
  • US Flag 
04:48PM EDT


 

Airport Tracker/Info


-or-


 

Live Flight TrackerFlight Track Log ✈ EGF3966 ✈ 27-Apr-2013 ✈ CYUL - KORD

Flight Track Log - Related Links

Times and Time Zones

All times are in EDT time to prevent confusion due to time zone crossing. See the EGF3966 flight status page for this flight to view local times or setup timezone preferences in your user account.

Time Position Orientation Groundspeed Altitude Reporting Facility
EDT Latitude Longitude Course Direction KTS MPH feet Rate Location/Type
01:55PM 45.4500 -73.7167 257° West 110 127 800  Level Montreal Center
01:56PM 45.4000 -73.7667 215° Southwest 200 230 2,900 2,220 Climbing Montreal Center
01:57PM 45.5940 -74.1183 300° West  Level FlightAware Approximate
01:57PM 45.3667 -73.8500 240° Southwest 220 253 5,300  Level Montreal Center
01:58PM 45.5705 -74.2515 250° West  Level FlightAware Approximate
01:58PM 45.3333 -73.9167 235° Southwest 240 276 7,500  Level Montreal Center
01:59PM 45.5259 -74.3790 243° Southwest  Level FlightAware Approximate
01:59PM 45.3667 -74.0167 295° West 250 288 10,100  Level Montreal Center
02:00PM 45.4953 -74.5117 257° West  Level FlightAware Approximate
02:00PM 45.4000 -74.1000 300° West 280 322 11,000  Level Montreal Center
02:01PM 45.4167 -74.2500 279° West 320 368 12,500 1,380 Climbing Montreal Center
02:02PM 45.4167 -74.3667 270° West 340 391 13,800 1,380 Climbing Montreal Center
02:03PM 45.4167 -74.5167 270° West 340 391 15,300 1,380 Climbing Montreal Center
02:04PM 45.4167 -74.6500 270° West 350 403 16,600 1,260 Climbing Montreal Center
02:05PM 45.4167 -74.8000 270° West 350 403 17,900 1,020 Climbing Montreal Center
02:06PM 45.4000 -74.9500 261° West 360 414 18,700 1,080 Climbing Montreal Center
02:07PM 45.4000 -75.0833 270° West 370 426 20,100 1,440 Climbing Montreal Center
02:08PM 45.4000 -75.2333 270° West 360 414 21,600 1,380 Climbing Montreal Center
02:09PM 45.4000 -75.3667 270° West 370 426 22,900 1,380 Climbing Montreal Center
02:10PM 45.4000 -75.5167 270° West 370 426 24,400 1,320 Climbing Montreal Center
02:11PM 45.4000 -75.6500 270° West 370 426 25,600 1,140 Climbing Montreal Center
02:12PM 45.4000 -75.8167 270° West 370 426 26,700 1,020 Climbing Montreal Center
02:13PM 45.4000 -75.9500 270° West 370 426 27,700 900 Climbing Montreal Center
02:14PM 45.4000 -76.1167 270° West 380 437 28,500 660 Climbing Montreal Center
02:15PM 45.3833 -76.2500 260° West 380 437 29,100 720 Climbing Montreal Center
02:16PM 45.3500 -76.4000 253° West 390 449 30,000 900 Climbing Montreal Center
02:17PM 45.3167 -76.5667 254° West 390 449 31,000 480 Climbing Montreal Center
02:18PM 45.2833 -76.7000 250° West 390 449 31,000 480 Level Montreal Center
02:19PM 45.2500 -76.8500 253° West 390 449 32,000 1,140 Climbing Montreal Center
02:20PM 45.2167 -76.9833 251° West 390 449 33,300 960 Climbing Montreal Center
02:21PM 45.1833 -77.1500 254° West 390 449 34,000 300 Climbing Montreal Center
02:22PM 45.1500 -77.3000 253° West 380 437 34,000  Level Montreal Center
02:23PM 45.1167 -77.4333 251° West 380 437 34,000  Level Montreal Center
02:24PM 45.0833 -77.5833 253° West 380 437 34,000  Level Montreal Center
02:25PM 45.0500 -77.6667 241° Southwest 380 437 34,000  Level Toronto Center
02:26PM 45.0000 -77.8333 247° West 380 437 34,000  Level Toronto Center
02:27PM 44.9667 -77.9667 251° West 380 437 34,000  Level Toronto Center
02:28PM 44.9667 -78.1000 270° West 370 426 34,000  Level Toronto Center
02:29PM 44.9833 -78.2333 280° West 350 403 34,000  Level Toronto Center
02:30PM 45.0000 -78.3833 279° West 350 403 34,000  Level Toronto Center
02:31PM 45.0167 -78.5167 280° West 360 414 34,000  Level Toronto Center
02:32PM 44.9667 -78.6500 242° Southwest 390 449 34,000  Level Toronto Center
02:33PM 44.9167 -78.8167 247° West 400 460 34,000  Level Toronto Center
02:34PM 44.8500 -78.9500 235° Southwest 420 483 34,000  Level Toronto Center
02:35PM 44.8000 -79.1000 245° Southwest 420 483 34,000  Level Toronto Center
02:36PM 44.7500 -79.2333 242° Southwest 420 483 34,000  Level Toronto Center
02:37PM 44.7000 -79.3667 242° Southwest 420 483 34,000  Level Toronto Center
02:38PM 44.6333 -79.5333 241° Southwest 420 483 34,000  Level Toronto Center
02:39PM 44.5833 -79.6833 245° Southwest 410 472 34,000  Level Toronto Center
02:40PM 44.5333 -79.8167 242° Southwest 410 472 34,000  Level Toronto Center
02:41PM 44.4833 -79.9667 245° Southwest 410 472 34,000  Level Toronto Center
02:42PM 44.4333 -80.1000 242° Southwest 410 472 34,000  Level Toronto Center
02:43PM 44.3833 -80.2333 242° Southwest 410 472 34,000  Level Toronto Center
02:44PM 44.3167 -80.3833 238° Southwest 420 483 34,000  Level Toronto Center
02:45PM 44.2667 -80.5167 242° Southwest 420 483 34,000  Level Toronto Center
02:46PM 44.2167 -80.6500 242° Southwest 420 483 34,000  Level Toronto Center
02:47PM 44.1667 -80.8167 247° West 420 483 34,000  Level Toronto Center
02:48PM 44.0833 -80.9500 229° Southwest 420 483 34,000  Level Toronto Center
02:49PM 44.0333 -81.1000 245° Southwest 420 483 34,000  Level Toronto Center
02:50PM 43.9833 -81.2333 243° Southwest 420 483 34,000  Level Toronto Center
02:51PM 43.9333 -81.4000 247° West 410 472 34,000  Level Toronto Center
02:52PM 43.8833 -81.5000 235° Southwest 410 472 34,000  Level Toronto Center
02:53PM 43.8167 -81.6500 238° Southwest 410 472 34,000  Level Toronto Center
02:54PM 43.7667 -81.8000 245° Southwest 410 472 34,000  Level Toronto Center
02:55PM 43.7000 -81.9333 235° Southwest 410 472 34,000  Level Toronto Center
02:56PM 43.6500 -82.0833 245° Southwest 410 472 34,000  Level Toronto Center
02:57PM 43.6000 -82.2167 243° Southwest 410 472 34,000  Level Toronto Center
02:57PM 43.5750 -82.2939 246° West 415 478 34,000  Level Cleveland Center
02:58PM 43.5208 -82.4325 242° Southwest 415 478 34,000  Level Cleveland Center
02:59PM 43.4642 -82.5711 241° Southwest 415 478 34,000  Level Cleveland Center
03:00PM 43.4075 -82.7092 241° Southwest 415 478 34,000  Level Cleveland Center
03:01PM 43.3667 -82.7500 216° Southwest 420 483 34,000  Level Toronto Center
03:01PM 43.3486 -82.8469 256° West 415 478 34,000 -240 Level Cleveland Center
03:02PM 43.2875 -82.9844 239° Southwest 415 478 33,700 -420 Descending Cleveland Center
03:03PM 43.2306 -83.1219 240° Southwest 415 478 33,200 -540 Descending Cleveland Center
03:04PM 43.1733 -83.2592 240° Southwest 415 478 32,700 -540 Descending Cleveland Center
03:05PM 43.1178 -83.3933 240° Southwest 415 478 32,200 -360 Descending Cleveland Center
03:06PM 43.0581 -83.5328 240° Southwest 415 478 32,000 -120 Descending Cleveland Center
03:07PM 43.0006 -83.6633 239° Southwest 415 478 32,000  Level Cleveland Center
03:08PM 42.9611 -83.8089 250° West 410 472 32,000  Level Cleveland Center
03:09PM 42.9442 -83.9642 262° West 404 465 32,000  Level Cleveland Center
03:10PM 42.9289 -84.1222 263° West 415 478 32,000  Level Cleveland Center
03:11PM 42.9136 -84.2772 262° West 421 484 32,000  Level Cleveland Center
03:13PM 42.8950 -84.4683 262° West 416 479 32,000  Level Chicago Center
03:14PM 42.8800 -84.6250 263° West 418 481 32,000  Level Chicago Center
03:15PM 42.8611 -84.8106 262° West 414 476 32,000  Level Chicago Center
03:16PM 42.8444 -84.9653 262° West 413 475 32,000  Level Chicago Center
03:17PM 42.8281 -85.1203 262° West 414 476 32,000 -120 Level Chicago Center
03:18PM 42.8103 -85.2767 261° West 416 479 31,800 -1,020 Descending Chicago Center
03:19PM 42.7933 -85.4375 262° West 426 490 30,000 -1,740 Descending Chicago Center
03:20PM 42.7700 -85.5956 259° West 426 490 28,300 -2,040 Descending Chicago Center
03:21PM 42.7403 -85.7581 256° West 437 503 25,900 -2,400 Descending Chicago Center
03:22PM 42.7097 -85.9225 256° West 444 511 23,400 -2,340 Descending Chicago Center
03:23PM 42.6811 -86.0808 256° West 432 497 21,200 -1,620 Descending Chicago Center
03:24PM 42.6467 -86.2664 256° West 422 486 20,100 -1,260 Descending Chicago Center
03:25PM 42.6175 -86.4183 255° West 416 479 18,700 -1,560 Descending Chicago Center
03:26PM 42.5894 -86.5642 255° West 401 461 17,000 -1,800 Descending Chicago Center
03:27PM 42.5647 -86.7025 256° West 380 437 15,100 -1,920 Descending Chicago Center
03:28PM 42.5306 -86.8378 251° West 380 437 13,100 -1,860 Descending Chicago Center
03:29PM 42.4956 -86.9678 250° West 371 427 11,300 -1,500 Descending Chicago Center
03:30PM 42.4622 -87.0839 249° West 337 388 10,100 -1,140 Descending Chicago Center
03:31PM 42.4286 -87.2067 250° West 293 337 9,000 -540 Descending Chicago Center
03:32PM 42.4019 -87.3039 250° West 279 321 9,000 -360 Level Chicago Center
03:33PM 42.3756 -87.4014 250° West 281 323 8,300 -840 Descending Chicago Center
03:34PM 42.3486 -87.4983 249° West 276 318 7,300 -660 Descending Chicago Center
03:35PM 42.2914 -87.5728 224° Southwest 261 300 7,000 -180 Descending Chicago Center
03:36PM 42.2417 -87.6272 219° Southwest 235 270 7,000 -480 Level Chicago Center
03:37PM 42.1986 -87.6781 221° Southwest 197 227 6,100 -900 Descending Chicago Center